This is the latest recevied weather packets stored in our database for station/object S50APT-10. If no packets are shown the sender has not sent any weather packets the latest 10 day(s).
| Time | Temp. | Humidity | Pressure | Rain* | Wind** | Luminosity | Snow |
|---|---|---|---|---|---|---|---|
| 1778239810 | 23.33° C | 34% | 1019.7 hPa | - | - | - | - |
| 1778238898 | 31.67° C | 24% | 1019.7 hPa | - | - | - | - |
| 1778237998 | 26.67° C | 30% | 1019.9 hPa | - | - | - | - |
| 1778237087 | 28.33° C | 27% | 1020 hPa | - | - | - | - |
| 1778236166 | 27.78° C | 28% | 1020.1 hPa | - | - | - | - |
| 1778235255 | 25.56° C | 37% | 1020.1 hPa | - | - | - | - |
| 1778234551 | 23.33° C | 40% | 1020.4 hPa | - | - | - | - |
| 1778234354 | 23.33° C | 40% | 1020.4 hPa | - | - | - | - |
| 1778233450 | 23.33° C | 38% | 1020.4 hPa | - | - | - | - |
| 1778232549 | 24.44° C | 35% | 1020.6 hPa | - | - | - | - |
| 1778231649 | 27.22° C | 34% | 1020.6 hPa | - | - | - | - |
| 1778230749 | 21.67° C | 43% | 1020.6 hPa | - | - | - | - |
| 1778229848 | 21.67° C | 40% | 1020.6 hPa | - | - | - | - |
| 1778228948 | 25.56° C | 34% | 1020.7 hPa | - | - | - | - |
| 1778228045 | 25° C | 37% | 1020.6 hPa | - | - | - | - |
| 1778227144 | 24.44° C | 36% | 1020.6 hPa | - | - | - | - |
| 1778226244 | 25.56° C | 41% | 1020.4 hPa | - | - | - | - |
| 1778225344 | 23.89° C | 43% | 1020.5 hPa | - | - | - | - |
| 1778224443 | 21.67° C | 47% | 1020.4 hPa | - | - | - | - |
| 1778223542 | 21.67° C | 51% | 1020.2 hPa | - | - | - | - |
| 1778222641 | 18.89° C | 54% | 1020.3 hPa | - | - | - | - |
| 1778221741 | 20° C | 53% | 1020.2 hPa | - | - | - | - |
| 1778220841 | 17.22° C | 55% | 1020 hPa | - | - | - | - |
| 1778219940 | 15.56° C | 68% | 1019.9 hPa | - | - | - | - |
| 1778219039 | 15° C | 66% | 1019.8 hPa | - | - | - | - |
* Rain since midnight (hover to see other rain measurements)
** Current wind speed in m/s (hover to see current wind gust speed)